Dade City, FL (33523)

3:09 PM EDT on August 20, 2014 (GMT -0400)
Dade City at Blanton | Change Station
CLOSE
Current Station
Personal Weather Station
Location: Dade City, FL
Elevation: 170 ft
Nearby Weather Stations

Elev 170 ft 28.40 °N, 82.25 °W | Updated 37 seconds ago

Scattered Clouds
Scattered Clouds
95.9 °F
Feels Like 110 °F
N
2.0
Wind Variable Wind from West
Gusts 2.0 mph

Today
High -- | Low -- °F
--% Chance of Precip.
Yesterday
High -- | Low -- °F
Precip. -- in
7:01 AM 8:02 PM
Waning Crescent, 20% visible
Pressure 30.07 in
Visibility 10.0 miles
Clouds Scattered Clouds 4500 ft
Heat Index 110 °F
Dew Point 76 °F
Humidity 53%
Rainfall 0.00 in
Snow Depth Not available.
UV 10 out of 12
Pollen 4.20 out of 12
Air Quality Not available.
Flu Activity Not available.
METAR KZPH 201855Z AUTO 34005KT 10SM SCT045 33/20 A3007 RMK AO2

More Conditions Fewer Conditions

Pressure 30.07 in
Visibility 10.0 miles
Clouds Scattered Clouds 4500 ft
Heat Index 110 °F
Dew Point 76 °F
Humidity 53%
Rainfall 0.00 in
Snow Depth Not available.
UV 10 out of 12
Pollen 4.20 out of 12
Air Quality Not available.
Flu Activity Not available.
METAR KZPH 201855Z AUTO 34005KT 10SM SCT045 33/20 A3007 RMK AO2

More Conditions Fewer Conditions

10-Day Weather Forecast

Almanac

Astronomy

Aug. 20, 2014 Rise Set
Actual Time 7:01 AM EDT 8:02 PM EDT
Civil Twilight 6:36 AM EDT 8:27 PM EDT
Nautical Twilight 6:07 AM EDT 8:56 PM EDT
Astronomical Twilight 5:37 AM EDT 9:25 PM EDT
Moon 2:48 AM EDT 4:38 PM EDT
Length of Visible Light 13h 50m
Length of Day
13h 01m
Tomorrow will be 1m 32s shorter.
Waning Crescent, 20% of the Moon is Illuminated
Today
Waning Crescent
Aug 25
New
Sep 2
First Quarter
Sep 8
Full
Sep 15
Last Quarter

Community

WunderPhotos

Upload Photos

1,745,718 photos uploaded!

WunderBlogs® & News

By Dr. Jeff Masters
Director of Meteorology, Weather Underground
By Kari Strenfel
Meteorologist, Weather Underground
By Christopher C. Burt
Weather Historian, Weather Underground
August 20, 2014
August 20, 2014
August 20, 2014

Nearby

Snow Depth

Station Depth Elevation
No new snow has been reported.

Earthquake Activity

City Distance Mag. Time & Date
No recent earthquake activity has been reported nearby.
Minimum magnitude displayed is 2.5.

Coastal Water Temperatures

Place Temperature
No Stations Reporting

Nearby Weather Stations